7VA4 weather

Bermuda Hundred Heliport
Hopewell, Virginia, United States

Public forecast

Using degrees Fahrenheit for public forecast. Weather courtesy of forecast.io.

METAR (pilot weather report)

Closest report is Richmond International Airport, 12.8 nm (23.7 km) N. Retrieved 2019/03/21 23:37 UTC (33 seconds ago):

KRIC 212337Z 30014G19KT 10SM BKN014 OVC036 07/06 A2964

TAF (pilot weather forecast)

Closest forecast is Richmond International Airport, 12.8 nm (23.7 km) N. Retrieved 2019/03/21 18:00 UTC (6 hours ago):

TAF COR KRIC 211758Z 2118/2218 31011G20KT 3SM RA BKN015 FM212000 31012KT 5SM -SHRA BKN009 FM212300 28010KT P6SM OVC012 FM220100 28011G20KT P6SM BKN030 FM220900 27013G25KT P6SM SCT300